createdAt,value
2018-08-24T00:02:28.275Z,22.04
2018-08-24T00:04:56.868Z,21.98
2018-08-24T00:07:25.812Z,21.99
2018-08-24T00:09:54.367Z,22.00
2018-08-24T00:12:22.955Z,21.97
2018-08-24T00:14:51.693Z,21.94
2018-08-24T00:17:25.476Z,21.95
2018-08-24T00:19:54.432Z,21.95
2018-08-24T00:22:23.007Z,21.92
2018-08-24T00:24:51.583Z,21.96
2018-08-24T00:27:20.488Z,21.96
2018-08-24T00:29:49.072Z,21.95
2018-08-24T00:32:17.646Z,21.91
2018-08-24T00:34:46.248Z,21.95
2018-08-24T00:37:14.810Z,21.91
2018-08-24T00:39:44.811Z,21.89
2018-08-24T00:42:14.291Z,21.80
2018-08-24T00:44:43.211Z,21.73
2018-08-24T00:47:11.911Z,21.66
2018-08-24T00:49:40.619Z,21.62
2018-08-24T00:52:09.272Z,21.60
2018-08-24T00:54:37.843Z,21.55
2018-08-24T00:57:06.692Z,21.46
2018-08-24T00:59:35.254Z,21.43
2018-08-24T01:02:03.923Z,21.41
2018-08-24T01:04:35.913Z,21.40
2018-08-24T01:07:09.712Z,21.48
2018-08-24T01:09:39.137Z,21.39
2018-08-24T01:12:17.514Z,21.35
2018-08-24T01:14:48.267Z,21.27
2018-08-24T01:17:21.912Z,21.36
2018-08-24T01:19:50.867Z,21.50
2018-08-24T01:22:19.419Z,21.54
2018-08-24T01:24:47.995Z,21.59
2018-08-24T01:27:16.935Z,21.59
2018-08-24T01:29:45.483Z,21.57
2018-08-24T01:32:15.223Z,21.65
2018-08-24T01:34:43.800Z,21.68
2018-08-24T01:37:12.404Z,21.68
2018-08-24T01:39:40.960Z,21.68
2018-08-24T01:42:09.700Z,21.72
2018-08-24T01:44:38.257Z,21.77
2018-08-24T01:47:06.822Z,21.81
2018-08-24T01:49:35.719Z,21.90
2018-08-24T01:52:04.312Z,21.93
2018-08-24T01:54:32.875Z,21.94
2018-08-24T01:57:01.559Z,21.98
2018-08-24T01:59:30.124Z,21.95
2018-08-24T02:01:58.676Z,21.95
2018-08-24T02:04:27.267Z,21.95
2018-08-24T02:06:55.831Z,21.94
2018-08-24T02:09:24.675Z,21.82
2018-08-24T02:11:53.271Z,21.80
2018-08-24T02:14:27.058Z,21.76
2018-08-24T02:16:55.695Z,21.72
2018-08-24T02:19:29.603Z,21.70
2018-08-24T02:22:03.624Z,21.66
2018-08-24T02:24:32.207Z,21.62
2018-08-24T02:27:00.775Z,21.63
2018-08-24T02:29:29.663Z,21.68
2018-08-24T02:31:58.248Z,21.67
2018-08-24T02:34:26.824Z,21.62
2018-08-24T02:36:55.415Z,21.55
2018-08-24T02:39:23.976Z,21.51
2018-08-24T02:41:52.571Z,21.56
2018-08-24T02:44:21.241Z,21.52
2018-08-24T02:46:49.816Z,21.47
2018-08-24T02:49:18.371Z,21.39
2018-08-24T02:51:47.840Z,21.42
2018-08-24T02:54:16.401Z,21.38
2018-08-24T02:56:44.958Z,21.39
2018-08-24T02:59:13.895Z,21.35
2018-08-24T03:01:42.500Z,21.29
2018-08-24T03:04:11.064Z,21.21
2018-08-24T03:06:39.684Z,21.19
2018-08-24T03:09:10.492Z,21.12
2018-08-24T03:11:39.068Z,21.22
2018-08-24T03:14:07.891Z,21.26
2018-08-24T03:16:36.444Z,21.31
2018-08-24T03:19:05.437Z,21.31
2018-08-24T03:21:33.995Z,21.29
2018-08-24T03:24:02.561Z,21.28
2018-08-24T03:26:31.502Z,21.28
2018-08-24T03:29:00.152Z,21.29
2018-08-24T03:31:28.728Z,21.29
2018-08-24T03:33:57.651Z,21.30
2018-08-24T03:36:26.211Z,21.30
2018-08-24T03:38:54.759Z,21.25
2018-08-24T03:41:23.359Z,21.23
2018-08-24T03:43:51.919Z,21.20
2018-08-24T03:46:20.479Z,21.19
2018-08-24T03:48:49.149Z,21.18
2018-08-24T03:51:17.708Z,21.23
2018-08-24T03:53:46.256Z,21.23
2018-08-24T03:56:15.111Z,21.25
2018-08-24T03:58:43.668Z,21.28
2018-08-24T04:01:12.237Z,21.29
2018-08-24T04:03:40.824Z,21.30
2018-08-24T04:06:09.408Z,21.31
2018-08-24T04:08:37.960Z,21.29
2018-08-24T04:11:06.923Z,21.22
2018-08-24T04:13:35.592Z,21.19
2018-08-24T04:16:04.148Z,21.14
2018-08-24T04:18:32.727Z,21.08
2018-08-24T04:21:01.289Z,21.03
2018-08-24T04:23:29.835Z,21.02
2018-08-24T04:25:58.817Z,21.03
2018-08-24T04:31:20.416Z,21.11
2018-08-24T04:33:48.984Z,21.16
2018-08-24T04:36:17.583Z,21.14
2018-08-24T04:38:46.443Z,21.19
2018-08-24T04:41:15.051Z,21.21
2018-08-24T04:43:43.599Z,21.20
2018-08-24T04:46:12.360Z,21.13
2018-08-24T04:48:40.953Z,21.10
2018-08-24T04:51:09.505Z,21.09
2018-08-24T04:53:40.447Z,21.07
2018-08-24T04:56:20.144Z,21.08
2018-08-24T04:58:48.752Z,21.10
2018-08-24T05:01:17.325Z,21.16
2018-08-24T05:03:45.879Z,21.18
2018-08-24T05:06:14.478Z,21.21
2018-08-24T05:08:43.030Z,21.25
2018-08-24T05:11:11.603Z,21.31
2018-08-24T05:13:40.543Z,21.39
2018-08-24T05:16:09.096Z,21.42
2018-08-24T05:18:37.654Z,21.46
2018-08-24T05:21:06.412Z,21.50
2018-08-24T05:23:34.967Z,21.58
2018-08-24T05:26:03.550Z,21.63
2018-08-24T05:28:32.139Z,21.65
2018-08-24T05:31:00.699Z,21.71
2018-08-24T05:33:29.263Z,21.74
2018-08-24T05:35:57.877Z,21.79
2018-08-24T05:38:26.436Z,21.85
2018-08-24T05:40:55.004Z,21.86
2018-08-24T05:43:23.619Z,21.91
2018-08-24T05:45:52.183Z,21.91
2018-08-24T05:48:20.774Z,21.96
2018-08-24T05:50:49.437Z,21.98
2018-08-24T05:53:17.986Z,22.02
2018-08-24T05:55:46.632Z,22.10
2018-08-24T05:58:15.475Z,22.15
2018-08-24T06:00:46.805Z,22.21
2018-08-24T06:03:15.418Z,22.29
2018-08-24T06:05:49.338Z,22.34
2018-08-24T06:08:18.003Z,22.40
2018-08-24T06:10:46.572Z,22.47
2018-08-24T06:13:17.972Z,22.50
2018-08-24T06:15:47.884Z,22.53
2018-08-24T06:18:16.635Z,22.54
2018-08-24T06:20:45.628Z,22.54
2018-08-24T06:23:14.907Z,22.61
2018-08-24T06:25:43.487Z,22.69
2018-08-24T06:28:12.412Z,22.72
2018-08-24T06:30:40.967Z,22.82
2018-08-24T06:33:09.528Z,22.89
2018-08-24T06:35:38.204Z,23.03
2018-08-24T06:38:06.884Z,23.20
2018-08-24T06:40:35.439Z,23.38
2018-08-24T06:43:04.052Z,23.49
2018-08-24T06:45:32.607Z,23.43
2018-08-24T06:48:01.159Z,23.46
2018-08-24T06:50:29.756Z,23.47
2018-08-24T06:52:58.329Z,23.46
2018-08-24T06:55:26.872Z,23.34
2018-08-24T06:57:55.831Z,23.42
2018-08-24T07:00:30.403Z,23.43
2018-08-24T07:03:00.073Z,23.51
2018-08-24T07:05:28.683Z,23.55
2018-08-24T07:07:57.239Z,23.55
2018-08-24T07:10:25.906Z,23.60
2018-08-24T07:12:54.621Z,23.61
2018-08-24T07:15:23.179Z,23.66
2018-08-24T07:17:56.927Z,23.74
2018-08-24T07:20:25.502Z,23.79
2018-08-24T07:22:54.055Z,23.82
2018-08-24T07:25:22.848Z,23.87
2018-08-24T07:27:51.423Z,23.86
2018-08-24T07:30:20.080Z,23.97
2018-08-24T07:32:48.945Z,24.01
2018-08-24T07:35:17.552Z,24.01
2018-08-24T07:37:46.305Z,23.84
2018-08-24T07:40:15.643Z,23.85
2018-08-24T07:42:44.208Z,23.93
2018-08-24T07:45:12.783Z,23.97
2018-08-24T07:47:41.376Z,23.88
2018-08-24T07:50:09.940Z,23.87
2018-08-24T07:52:38.487Z,23.84
2018-08-24T07:55:07.804Z,23.81
2018-08-24T07:57:36.359Z,23.86
2018-08-24T08:00:05.387Z,23.91
2018-08-24T08:02:39.387Z,23.81
2018-08-24T08:05:07.960Z,23.73
2018-08-24T08:07:36.500Z,23.54
2018-08-24T08:10:05.283Z,23.49
2018-08-24T08:12:33.863Z,23.56
2018-08-24T08:15:10.496Z,23.93
2018-08-24T08:17:40.460Z,24.06
2018-08-24T08:20:09.936Z,24.18
2018-08-24T08:22:38.619Z,24.41
2018-08-24T08:25:07.227Z,25.18
2018-08-24T08:27:35.945Z,25.69
2018-08-24T08:30:05.868Z,25.52
2018-08-24T08:32:34.453Z,25.45
2018-08-24T08:35:03.027Z,25.41
2018-08-24T08:37:31.572Z,25.56
2018-08-24T08:40:02.431Z,25.75
2018-08-24T08:42:31.055Z,26.07
2018-08-24T08:45:00.147Z,26.57
2018-08-24T08:47:28.728Z,26.50
2018-08-24T08:49:57.288Z,27.00
2018-08-24T08:52:25.835Z,27.12
2018-08-24T08:54:54.511Z,27.02
2018-08-24T08:57:23.212Z,27.37
2018-08-24T08:59:51.763Z,27.19
2018-08-24T09:02:20.572Z,26.61
2018-08-24T09:04:49.108Z,26.34
2018-08-24T09:07:17.661Z,26.46
2018-08-24T09:09:46.277Z,26.70
2018-08-24T09:12:14.824Z,26.82
2018-08-24T09:14:43.375Z,26.63
2018-08-24T09:17:17.276Z,26.33
2018-08-24T09:19:51.217Z,26.45
2018-08-24T09:22:25.336Z,26.03
2018-08-24T09:24:59.203Z,25.71
2018-08-24T09:27:36.388Z,25.58
2018-08-24T09:30:06.067Z,25.73
2018-08-24T09:32:34.743Z,25.94
2018-08-24T09:35:03.295Z,25.72
2018-08-24T09:37:38.142Z,25.38
2018-08-24T09:40:07.951Z,25.13
2018-08-24T09:42:36.579Z,25.01
2018-08-24T09:45:05.487Z,24.93
2018-08-24T09:47:39.135Z,24.82
2018-08-24T09:50:13.175Z,24.68
2018-08-24T09:52:41.903Z,24.62
2018-08-24T09:55:10.443Z,24.65
2018-08-24T09:57:38.996Z,24.81
2018-08-24T10:00:08.592Z,25.42
2018-08-24T10:02:43.977Z,25.84
2018-08-24T10:05:17.846Z,26.29
2018-08-24T10:07:51.499Z,26.01
2018-08-24T10:10:20.180Z,25.88
2018-08-24T10:12:48.729Z,25.50
2018-08-24T10:15:17.276Z,25.47
2018-08-24T10:17:46.044Z,25.46
2018-08-24T10:20:14.599Z,25.54
2018-08-24T10:22:43.134Z,25.50
2018-08-24T10:25:11.704Z,26.66
2018-08-24T10:27:40.405Z,27.08
2018-08-24T10:30:08.939Z,28.08
2018-08-24T10:32:37.499Z,28.55
2018-08-24T10:35:06.049Z,28.51
2018-08-24T10:37:34.592Z,27.36
2018-08-24T10:40:03.556Z,26.37
2018-08-24T10:42:32.103Z,25.59
2018-08-24T10:45:00.683Z,24.91
2018-08-24T10:47:29.280Z,24.14
2018-08-24T10:49:57.867Z,23.39
2018-08-24T10:52:26.411Z,22.67
2018-08-24T10:54:55.101Z,22.17
2018-08-24T10:57:23.684Z,21.62
2018-08-24T10:59:52.239Z,21.13
2018-08-24T11:02:21.083Z,20.64
2018-08-24T11:04:49.654Z,20.44
2018-08-24T11:07:18.326Z,20.43
2018-08-24T11:09:47.174Z,20.17
2018-08-24T11:12:15.712Z,20.09
2018-08-24T11:14:44.277Z,20.08
2018-08-24T11:17:13.139Z,19.96
2018-08-24T11:19:41.695Z,19.97
2018-08-24T11:22:10.244Z,19.88
2018-08-24T11:24:38.968Z,19.89
2018-08-24T11:27:07.512Z,19.80
2018-08-24T11:29:36.079Z,19.83
2018-08-24T11:32:04.675Z,19.83
2018-08-24T11:34:33.242Z,20.18
2018-08-24T11:37:01.803Z,20.11
2018-08-24T11:39:30.742Z,19.98
2018-08-24T11:41:59.309Z,19.98
2018-08-24T11:44:27.855Z,20.14
2018-08-24T11:46:56.434Z,20.13
2018-08-24T11:49:25.000Z,20.32
2018-08-24T11:51:53.556Z,20.65
2018-08-24T11:54:22.154Z,20.75
2018-08-24T11:56:50.728Z,20.91
2018-08-24T11:59:19.297Z,21.08
2018-08-24T12:01:47.896Z,21.21
2018-08-24T12:04:16.452Z,21.35
2018-08-24T12:06:44.995Z,21.48
2018-08-24T12:09:13.647Z,21.38
2018-08-24T12:11:42.200Z,21.32
2018-08-24T12:14:11.051Z,21.37
2018-08-24T12:16:39.607Z,21.56
2018-08-24T12:19:08.171Z,21.56
2018-08-24T12:21:36.722Z,21.51
2018-08-24T12:24:05.623Z,21.42
2018-08-24T12:26:34.183Z,21.41
2018-08-24T12:29:02.735Z,21.44
2018-08-24T12:31:31.388Z,21.39
2018-08-24T12:33:59.943Z,21.41
2018-08-24T12:36:28.615Z,21.44
2018-08-24T12:38:57.200Z,21.40
2018-08-24T12:41:25.831Z,21.30
2018-08-24T12:43:54.376Z,21.25
2018-08-24T12:46:22.955Z,21.18
2018-08-24T12:48:51.515Z,21.09
2018-08-24T12:51:20.079Z,21.02
2018-08-24T12:53:48.779Z,21.11
2018-08-24T12:56:19.791Z,21.21
2018-08-24T12:58:49.595Z,21.21
2018-08-24T13:01:18.194Z,21.15
2018-08-24T13:03:46.737Z,21.15
2018-08-24T13:06:15.437Z,21.09
2018-08-24T13:08:44.617Z,21.00
2018-08-24T13:11:13.804Z,20.97
2018-08-24T13:13:42.428Z,20.88
2018-08-24T13:16:11.019Z,20.70
2018-08-24T13:18:39.635Z,20.64
2018-08-24T13:21:08.444Z,20.61
2018-08-24T13:23:37.032Z,20.64
2018-08-24T13:26:05.605Z,20.64
2018-08-24T13:28:34.417Z,20.75
2018-08-24T13:31:02.975Z,20.80
2018-08-24T13:33:31.536Z,21.01
2018-08-24T13:36:00.129Z,21.11
2018-08-24T13:38:28.717Z,21.27
2018-08-24T13:40:57.267Z,21.33
2018-08-24T13:43:26.271Z,21.54
2018-08-24T13:45:54.871Z,21.67
2018-08-24T13:48:23.431Z,21.84
2018-08-24T13:50:52.161Z,21.95
2018-08-24T13:53:20.739Z,22.17
2018-08-24T13:55:49.304Z,22.27
2018-08-24T13:58:18.171Z,22.36
2018-08-24T14:00:46.735Z,22.46
2018-08-24T14:03:15.292Z,22.53
2018-08-24T14:05:43.881Z,22.49
2018-08-24T14:08:12.446Z,22.52
2018-08-24T14:10:41.023Z,22.47
2018-08-24T14:13:09.866Z,22.44
2018-08-24T14:15:38.424Z,22.40
2018-08-24T14:18:07.027Z,22.35
2018-08-24T14:20:35.637Z,22.24
2018-08-24T14:23:04.207Z,22.26
2018-08-24T14:25:32.771Z,22.22
2018-08-24T14:28:01.463Z,22.16
2018-08-24T14:30:30.026Z,22.14
2018-08-24T14:32:58.573Z,21.97
2018-08-24T14:35:27.388Z,21.96
2018-08-24T14:37:55.979Z,21.93
2018-08-24T14:40:24.552Z,21.86
2018-08-24T14:42:53.504Z,21.84
2018-08-24T14:45:22.088Z,21.77
2018-08-24T14:47:50.727Z,21.70
2018-08-24T14:50:19.408Z,21.67
2018-08-24T14:52:47.982Z,21.59
2018-08-24T14:55:16.552Z,21.59
2018-08-24T14:57:45.427Z,21.38
2018-08-24T15:00:14.035Z,21.33
2018-08-24T15:02:42.592Z,21.24
2018-08-24T15:05:12.351Z,21.20
2018-08-24T15:07:41.303Z,21.24
2018-08-24T15:10:11.081Z,21.22
2018-08-24T15:12:40.329Z,21.20
2018-08-24T15:15:08.921Z,21.19
2018-08-24T15:17:38.011Z,21.19
2018-08-24T15:20:08.282Z,21.21
2018-08-24T15:22:36.869Z,21.22
2018-08-24T15:25:05.722Z,21.27
2018-08-24T15:27:34.331Z,21.30
2018-08-24T15:30:03.448Z,21.35
2018-08-24T15:32:32.384Z,21.28
2018-08-24T15:35:01.913Z,21.35
2018-08-24T15:37:30.975Z,21.31
2018-08-24T15:40:00.038Z,21.29
2018-08-24T15:42:28.859Z,21.28
2018-08-24T15:44:57.567Z,21.21
2018-08-24T15:47:26.118Z,21.07
2018-08-24T15:49:54.792Z,21.00
2018-08-24T15:52:23.347Z,20.93
2018-08-24T15:54:51.912Z,20.88
2018-08-24T15:57:20.766Z,20.87
2018-08-24T15:59:49.320Z,20.89
2018-08-24T16:02:17.886Z,20.80
2018-08-24T16:04:46.464Z,20.80
2018-08-24T16:07:15.029Z,20.82
2018-08-24T16:09:43.591Z,20.75
2018-08-24T16:12:12.250Z,20.78
2018-08-24T16:14:40.820Z,20.82
2018-08-24T16:17:09.379Z,20.86
2018-08-24T16:19:38.192Z,20.90
2018-08-24T16:22:06.907Z,20.94
2018-08-24T16:24:35.414Z,20.92
2018-08-24T16:27:04.211Z,20.95
2018-08-24T16:29:32.772Z,20.90
2018-08-24T16:32:01.328Z,20.79
2018-08-24T16:34:29.981Z,20.83
2018-08-24T16:36:58.546Z,20.86
2018-08-24T16:39:27.087Z,20.91
2018-08-24T16:41:56.004Z,20.76
2018-08-24T16:44:24.550Z,20.76
2018-08-24T16:46:53.120Z,20.69
2018-08-24T16:49:21.859Z,20.72
2018-08-24T16:51:50.412Z,20.73
2018-08-24T16:54:18.991Z,20.56
2018-08-24T16:56:48.527Z,20.68
2018-08-24T16:59:17.071Z,20.69
2018-08-24T17:01:45.628Z,20.64
2018-08-24T17:04:14.215Z,20.68
2018-08-24T17:06:42.795Z,20.69
2018-08-24T17:09:12.791Z,20.66
2018-08-24T17:11:41.685Z,20.58
2018-08-24T17:14:10.237Z,20.56
2018-08-24T17:16:38.792Z,20.58
2018-08-24T17:19:07.383Z,20.53
2018-08-24T17:21:35.940Z,20.54
2018-08-24T17:24:04.527Z,20.45
2018-08-24T17:26:33.263Z,20.51
2018-08-24T17:29:01.821Z,20.53
2018-08-24T17:31:30.380Z,20.50
2018-08-24T17:33:59.109Z,20.52
2018-08-24T17:36:27.668Z,20.44
2018-08-24T17:38:56.223Z,20.32
2018-08-24T17:41:24.891Z,20.43
2018-08-24T17:43:53.447Z,20.30
2018-08-24T17:46:22.016Z,20.32
2018-08-24T17:48:50.749Z,20.25
2018-08-24T17:51:19.295Z,20.23
2018-08-24T17:53:47.849Z,20.29
2018-08-24T17:56:16.438Z,20.32
2018-08-24T17:58:45.003Z,20.33
2018-08-24T18:01:13.583Z,20.28
2018-08-24T18:03:42.156Z,20.28
2018-08-24T18:06:10.707Z,20.17
2018-08-24T18:08:39.259Z,20.18
2018-08-24T18:11:08.020Z,20.05
2018-08-24T18:13:36.567Z,20.01
2018-08-24T18:16:05.173Z,19.91
2018-08-24T18:18:33.955Z,19.87
2018-08-24T18:21:02.508Z,19.88
2018-08-24T18:23:31.060Z,19.87
2018-08-24T18:26:00.009Z,19.92
2018-08-24T18:28:28.568Z,19.90
2018-08-24T18:30:57.125Z,19.87
2018-08-24T18:33:25.947Z,19.78
2018-08-24T18:36:24.945Z,19.74
2018-08-24T18:39:22.766Z,19.69
2018-08-24T18:42:17.742Z,19.68
2018-08-24T18:45:11.310Z,19.72
2018-08-24T18:48:03.293Z,19.68
2018-08-24T18:50:51.319Z,19.68
2018-08-24T18:53:20.952Z,19.67
2018-08-24T18:55:49.743Z,19.60
2018-08-24T18:58:18.448Z,19.61
2018-08-24T19:00:46.997Z,19.59
2018-08-24T19:03:15.700Z,19.57
2018-08-24T19:05:44.260Z,19.58
2018-08-24T19:08:13.504Z,19.55
2018-08-24T19:10:47.451Z,19.48
2018-08-24T19:13:17.149Z,19.49
2018-08-24T19:15:47.075Z,19.49
2018-08-24T19:18:20.996Z,19.56
2018-08-24T19:20:54.992Z,19.57
2018-08-24T19:23:23.572Z,19.52
2018-08-24T19:25:52.298Z,19.49
2018-08-24T19:29:25.046Z,19.56
2018-08-24T19:31:54.878Z,19.53
2018-08-24T19:34:32.537Z,19.58
2018-08-24T19:37:01.103Z,19.54
2018-08-24T19:39:29.941Z,19.58
2018-08-24T19:42:03.851Z,19.55
2018-08-24T19:44:33.001Z,19.57
2018-08-24T19:47:01.605Z,19.58
2018-08-24T19:49:30.260Z,19.54
2018-08-24T19:51:58.860Z,19.56
2018-08-24T19:54:27.436Z,19.56
2018-08-24T19:56:58.480Z,19.57
2018-08-24T19:59:27.079Z,19.49
2018-08-24T20:01:55.616Z,19.50
2018-08-24T20:04:24.563Z,19.43
2018-08-24T20:06:58.379Z,19.43
2018-08-24T20:09:32.484Z,19.41
2018-08-24T20:12:01.043Z,19.37
2018-08-24T20:14:34.788Z,19.28
2018-08-24T20:17:08.658Z,19.26
2018-08-24T20:19:37.340Z,19.25
2018-08-24T20:22:08.882Z,19.29
2018-08-24T20:24:37.659Z,19.28
2018-08-24T20:27:06.160Z,19.27
2018-08-24T20:29:34.716Z,19.28
2018-08-24T20:32:03.588Z,19.29
2018-08-24T20:34:32.187Z,19.24
2018-08-24T20:37:00.743Z,19.19
2018-08-24T20:39:29.536Z,19.17
2018-08-24T20:41:58.091Z,19.15
2018-08-24T20:44:26.660Z,19.25
2018-08-24T20:46:55.391Z,19.26
2018-08-24T20:49:23.944Z,19.30
2018-08-24T20:51:52.491Z,19.35
2018-08-24T20:54:21.393Z,19.38
2018-08-24T20:56:49.964Z,19.46
2018-08-24T20:59:18.892Z,19.49
2018-08-24T21:01:47.604Z,19.51
2018-08-24T21:04:16.192Z,19.60
2018-08-24T21:06:44.739Z,19.65
2018-08-24T21:09:13.319Z,19.68
2018-08-24T21:11:42.125Z,19.64
2018-08-24T21:14:10.899Z,19.67
2018-08-24T21:16:39.636Z,19.71
2018-08-24T21:19:08.452Z,19.68
2018-08-24T21:21:37.192Z,19.67
2018-08-24T21:24:06.043Z,19.66
2018-08-24T21:26:34.615Z,19.63
2018-08-24T21:29:03.431Z,19.55
2018-08-24T21:31:32.071Z,19.50
2018-08-24T21:34:00.636Z,19.49
2018-08-24T21:36:29.187Z,19.49
2018-08-24T21:38:57.995Z,19.49
2018-08-24T21:41:26.567Z,19.55
2018-08-24T21:43:55.123Z,19.56
2018-08-24T21:46:23.723Z,19.55
2018-08-24T21:48:52.296Z,19.56
2018-08-24T21:51:20.851Z,19.57
2018-08-24T21:53:49.439Z,19.59
2018-08-24T21:56:17.992Z,19.55
2018-08-24T21:58:46.548Z,19.54
2018-08-24T22:01:15.164Z,19.52
2018-08-24T22:03:43.731Z,19.50
2018-08-24T22:06:12.314Z,19.47
2018-08-24T22:08:41.027Z,19.36
2018-08-24T22:11:09.667Z,19.29
2018-08-24T22:13:38.580Z,19.27
2018-08-24T22:16:07.164Z,19.28
2018-08-24T22:18:35.707Z,19.23
2018-08-24T22:21:04.284Z,19.20
2018-08-24T22:23:32.923Z,19.15
2018-08-24T22:26:01.487Z,19.13
2018-08-24T22:28:30.028Z,19.06
2018-08-24T22:30:58.755Z,19.03
2018-08-24T22:33:27.307Z,19.08
2018-08-24T22:35:55.860Z,19.06
2018-08-24T22:38:24.544Z,19.02
2018-08-24T22:40:53.100Z,18.99
2018-08-24T22:43:26.895Z,18.97
2018-08-24T22:45:55.443Z,18.95
2018-08-24T22:48:24.027Z,18.91
2018-08-24T22:50:52.635Z,18.87
2018-08-24T22:53:21.192Z,18.85
2018-08-24T22:55:50.302Z,18.85
2018-08-24T22:58:18.972Z,18.83
2018-08-24T23:00:47.576Z,18.76
2018-08-24T23:03:16.536Z,18.71
2018-08-24T23:05:45.163Z,18.60
2018-08-24T23:08:13.708Z,18.49
2018-08-24T23:10:42.335Z,18.33
2018-08-24T23:13:11.352Z,18.25
2018-08-24T23:15:39.923Z,18.23
2018-08-24T23:18:08.587Z,18.23
2018-08-24T23:20:37.248Z,18.22
2018-08-24T23:23:05.853Z,18.24
2018-08-24T23:25:34.440Z,18.25
2018-08-24T23:28:03.040Z,18.28
2018-08-24T23:30:31.645Z,18.24
2018-08-24T23:33:00.203Z,18.23
2018-08-24T23:35:28.824Z,18.16
2018-08-24T23:37:57.444Z,18.09
2018-08-24T23:40:26.027Z,17.96
2018-08-24T23:42:54.871Z,18.01
2018-08-24T23:45:23.446Z,17.93
2018-08-24T23:47:52.019Z,17.86
2018-08-24T23:50:20.964Z,17.83
2018-08-24T23:52:49.523Z,17.82
2018-08-24T23:55:18.081Z,17.70
2018-08-24T23:57:46.928Z,17.63
